createdAt,value
2024-04-25T00:00:26.311Z,84793.25
2024-04-25T00:02:54.810Z,84777.81
2024-04-25T00:05:23.210Z,84790.38
2024-04-25T00:07:51.616Z,84790.66
2024-04-25T00:10:19.879Z,84784.94
2024-04-25T00:12:48.220Z,84788.91
2024-04-25T00:15:16.381Z,84795.47
2024-04-25T00:17:44.805Z,84792.84
2024-04-25T00:20:13.295Z,84789.94
2024-04-25T00:22:41.668Z,84778.25
2024-04-25T00:25:09.946Z,84793.16
2024-04-25T00:27:38.323Z,84794.53
2024-04-25T00:30:07.316Z,84800.06
2024-04-25T00:32:36.533Z,84802.88
2024-04-25T00:35:05.443Z,84802.44
2024-04-25T00:37:34.044Z,84795.91
2024-04-25T00:40:04.162Z,84802.78
2024-04-25T00:42:32.340Z,84800.88
2024-04-25T00:45:00.528Z,84800.50
2024-04-25T00:47:30.741Z,84798.28
2024-04-25T00:50:00.836Z,84817.72
2024-04-25T00:52:31.027Z,84802.44
2024-04-25T00:54:59.446Z,84816.50
2024-04-25T00:57:29.494Z,84814.91
2024-04-25T00:59:59.352Z,84812.16
2024-04-25T01:02:29.032Z,84820.53
2024-04-25T01:04:58.147Z,84820.69
2024-04-25T01:07:26.379Z,84817.59
2024-04-25T01:09:57.797Z,84819.38
2024-04-25T01:12:27.427Z,84812.09
2024-04-25T01:14:55.643Z,84816.75
2024-04-25T01:17:23.581Z,84815.59
2024-04-25T01:19:51.873Z,84809.47
2024-04-25T01:22:21.180Z,84811.97
2024-04-25T01:24:50.569Z,84817.22
2024-04-25T01:27:19.816Z,84821.19
2024-04-25T01:29:49.671Z,84831.25
2024-04-25T01:32:18.603Z,84825.28
2024-04-25T01:34:47.068Z,84831.09
2024-04-25T01:37:15.642Z,84823.78
2024-04-25T01:39:44.088Z,84820.44
2024-04-25T01:42:12.459Z,84772.72
2024-04-25T01:44:40.717Z,84819.44
2024-04-25T01:47:09.105Z,84810.13
2024-04-25T01:49:37.524Z,84820.91
2024-04-25T01:52:06.405Z,84813.03
2024-04-25T01:54:34.536Z,84818.00
2024-04-25T01:57:02.404Z,84823.41
2024-04-25T01:59:30.573Z,84818.16
2024-04-25T02:01:58.939Z,84820.50
2024-04-25T02:04:27.238Z,84810.25
2024-04-25T02:06:55.612Z,84802.81
2024-04-25T02:09:23.989Z,84799.75
2024-04-25T02:11:52.409Z,84808.38
2024-04-25T02:14:20.801Z,84818.03
2024-04-25T02:16:49.292Z,84763.13
2024-04-25T02:19:17.576Z,84820.06
2024-04-25T02:22:04.204Z,84817.91
2024-04-25T02:24:51.396Z,84767.06
2024-04-25T02:27:19.689Z,84815.97
2024-04-25T02:29:48.200Z,84805.16
2024-04-25T02:32:16.618Z,84803.56
2024-04-25T02:34:44.851Z,84799.31
2024-04-25T02:37:12.812Z,84816.44
2024-04-25T02:39:41.628Z,84800.94
2024-04-25T02:42:10.055Z,84809.09
2024-04-25T02:44:38.369Z,84811.28
2024-04-25T02:47:06.688Z,84810.00
2024-04-25T02:49:35.196Z,84821.22
2024-04-25T02:52:03.840Z,84820.06
2024-04-25T02:54:32.226Z,84823.28
2024-04-25T02:57:00.736Z,84812.00
2024-04-25T02:59:29.035Z,84816.84
2024-04-25T03:01:57.358Z,84807.91
2024-04-25T03:04:26.610Z,84773.16
2024-04-25T03:06:55.085Z,84818.25
2024-04-25T03:09:23.414Z,84817.06
2024-04-25T03:11:51.954Z,84815.03
2024-04-25T03:14:20.314Z,84811.78
2024-04-25T03:16:48.564Z,84825.06
2024-04-25T03:19:17.233Z,84828.28
2024-04-25T03:21:45.628Z,84801.94
2024-04-25T03:24:13.698Z,84825.59
2024-04-25T03:26:42.076Z,84822.81
2024-04-25T03:29:10.913Z,84812.13
2024-04-25T03:31:39.121Z,84828.44
2024-04-25T03:34:06.997Z,84828.16
2024-04-25T03:36:35.617Z,84820.69
2024-04-25T03:39:03.860Z,84823.56
2024-04-25T03:41:34.340Z,84825.56
2024-04-25T03:44:03.022Z,84829.88
2024-04-25T03:46:31.292Z,84816.94
2024-04-25T03:49:00.607Z,84825.38
2024-04-25T03:51:28.781Z,84803.59
2024-04-25T03:53:56.797Z,84805.81
2024-04-25T03:56:24.683Z,84817.47
2024-04-25T03:58:52.866Z,84818.47
2024-04-25T04:01:21.687Z,84812.34
2024-04-25T04:03:49.949Z,84766.66
2024-04-25T04:06:24.392Z,84786.06
2024-04-25T04:08:52.730Z,84809.25
2024-04-25T04:11:21.463Z,84818.22
2024-04-25T04:13:49.738Z,84816.56
2024-04-25T04:16:18.199Z,84819.28
2024-04-25T04:18:47.219Z,84824.63
2024-04-25T04:21:15.531Z,84819.47
2024-04-25T04:23:44.916Z,84837.31
2024-04-25T04:26:13.219Z,84838.28
2024-04-25T04:28:41.294Z,84836.66
2024-04-25T04:31:09.175Z,84844.13
2024-04-25T04:33:40.551Z,84845.84
2024-04-25T04:36:09.515Z,84844.22
2024-04-25T04:38:37.825Z,84844.03
2024-04-25T04:41:06.442Z,84836.09
2024-04-25T04:43:34.870Z,84843.66
2024-04-25T04:46:05.484Z,84831.41
2024-04-25T04:48:35.075Z,84831.16
2024-04-25T04:51:04.548Z,84846.91
2024-04-25T04:53:32.718Z,84838.97
2024-04-25T04:56:01.200Z,84844.63
2024-04-25T04:58:29.739Z,84842.50
2024-04-25T05:00:58.064Z,84842.78
2024-04-25T05:03:26.455Z,84830.47
2024-04-25T05:05:54.847Z,84843.88
2024-04-25T05:08:24.060Z,84837.16
2024-04-25T05:10:52.377Z,84810.00
2024-04-25T05:13:21.049Z,84848.34
2024-04-25T05:15:49.362Z,84850.19
2024-04-25T05:18:17.623Z,84849.38
2024-04-25T05:20:46.132Z,84838.72
2024-04-25T05:23:13.899Z,84844.03
2024-04-25T05:25:42.177Z,84833.88
2024-04-25T05:28:10.327Z,84797.91
2024-04-25T05:30:38.630Z,84837.78
2024-04-25T05:33:07.100Z,84823.63
2024-04-25T05:35:36.034Z,84831.19
2024-04-25T05:38:04.411Z,84832.00
2024-04-25T05:40:33.056Z,84829.28
2024-04-25T05:43:01.133Z,84831.56
2024-04-25T05:45:29.557Z,84832.88
2024-04-25T05:47:58.268Z,84824.75
2024-04-25T05:50:26.841Z,84812.13
2024-04-25T05:52:55.189Z,84811.25
2024-04-25T05:55:23.377Z,84818.16
2024-04-25T05:57:51.351Z,84805.22
2024-04-25T06:00:20.039Z,84807.69
2024-04-25T06:02:48.379Z,84809.44
2024-04-25T06:05:16.564Z,84802.00
2024-04-25T06:07:44.450Z,84810.22
2024-04-25T06:10:13.274Z,84799.66
2024-04-25T06:12:41.467Z,84798.69
2024-04-25T06:15:09.749Z,84788.28
2024-04-25T06:17:42.507Z,84789.06
2024-04-25T06:20:14.312Z,84783.75
2024-04-25T06:22:42.572Z,84793.69
2024-04-25T06:25:10.781Z,84792.94
2024-04-25T06:27:39.332Z,84792.22
2024-04-25T06:30:08.172Z,84793.69
2024-04-25T06:32:39.242Z,84789.81
2024-04-25T06:35:08.517Z,84791.78
2024-04-25T06:37:37.138Z,84787.88
2024-04-25T06:40:05.927Z,84747.75
2024-04-25T06:42:34.615Z,84797.34
2024-04-25T06:45:03.039Z,84786.94
2024-04-25T06:47:32.931Z,84789.13
2024-04-25T06:50:01.551Z,84791.06
2024-04-25T06:52:31.110Z,84784.03
2024-04-25T06:54:59.424Z,84781.88
2024-04-25T06:57:28.108Z,84779.69
2024-04-25T06:59:58.003Z,84774.84
2024-04-25T07:02:26.761Z,84783.06
2024-04-25T07:04:58.422Z,84762.47
2024-04-25T07:07:31.086Z,84774.56
2024-04-25T07:09:59.411Z,84774.53
2024-04-25T07:12:31.973Z,84780.56
2024-04-25T07:15:05.906Z,84762.38
2024-04-25T07:17:35.413Z,84769.63
2024-04-25T07:20:04.857Z,84760.59
2024-04-25T07:22:33.151Z,84761.78
2024-04-25T07:25:01.333Z,84754.03
2024-04-25T07:27:35.551Z,84755.19
2024-04-25T07:30:03.988Z,84751.75
2024-04-25T07:32:32.643Z,84756.31
2024-04-25T07:35:00.944Z,84761.09
2024-04-25T07:37:37.259Z,84738.59
2024-04-25T07:40:06.658Z,84753.50
2024-04-25T07:42:34.712Z,84743.47
2024-04-25T07:45:05.768Z,84752.13
2024-04-25T07:47:34.318Z,84729.78
2024-04-25T07:50:02.818Z,84735.44
2024-04-25T07:52:31.555Z,84735.34
2024-04-25T07:54:59.711Z,84724.59
2024-04-25T07:57:28.150Z,84730.19
2024-04-25T07:59:59.282Z,84724.00
2024-04-25T08:02:27.750Z,84714.94
2024-04-25T08:04:57.248Z,84713.06
2024-04-25T08:07:25.543Z,84718.31
2024-04-25T08:09:55.595Z,84690.75
2024-04-25T08:12:25.217Z,84712.81
2024-04-25T08:14:53.539Z,84690.63
2024-04-25T08:17:21.712Z,84700.63
2024-04-25T08:19:54.325Z,84706.50
2024-04-25T08:22:24.089Z,84705.25
2024-04-25T08:24:53.282Z,84693.25
2024-04-25T08:27:21.460Z,84694.84
2024-04-25T08:29:50.268Z,84698.31
2024-04-25T08:32:21.256Z,84693.22
2024-04-25T08:34:50.853Z,84686.75
2024-04-25T08:37:19.008Z,84689.75
2024-04-25T08:39:47.292Z,84676.53
2024-04-25T08:42:19.722Z,84679.34
2024-04-25T08:44:50.380Z,84675.94
2024-04-25T08:47:19.848Z,84674.06
2024-04-25T08:49:50.130Z,84673.81
2024-04-25T08:52:19.453Z,84676.41
2024-04-25T08:54:50.922Z,84650.97
2024-04-25T08:57:19.319Z,84670.38
2024-04-25T08:59:47.669Z,84670.03
2024-04-25T09:02:16.796Z,84661.84
2024-04-25T09:04:46.283Z,84661.53
2024-04-25T09:07:14.514Z,84654.72
2024-04-25T09:09:42.532Z,84656.88
2024-04-25T09:12:10.640Z,84660.63
2024-04-25T09:14:39.071Z,84665.44
2024-04-25T09:17:16.703Z,84661.91
2024-04-25T09:19:45.984Z,84657.91
2024-04-25T09:22:14.344Z,84645.63
2024-04-25T09:24:42.898Z,84643.81
2024-04-25T09:27:11.150Z,84647.16
2024-04-25T09:29:39.515Z,84627.78
2024-04-25T09:32:11.298Z,84641.94
2024-04-25T09:34:39.411Z,84623.75
2024-04-25T09:37:07.784Z,84626.16
2024-04-25T09:39:37.634Z,84623.53
2024-04-25T09:42:09.237Z,84627.84
2024-04-25T09:44:39.540Z,84625.53
2024-04-25T09:47:13.858Z,84616.16
2024-04-25T09:49:53.046Z,84628.19
2024-04-25T09:52:29.684Z,84633.06
2024-04-25T09:55:04.715Z,84631.63
2024-04-25T09:57:34.604Z,84622.63
2024-04-25T10:00:08.368Z,84637.75
2024-04-25T10:02:38.386Z,84640.97
2024-04-25T10:05:07.200Z,84630.72
2024-04-25T10:07:36.911Z,84628.31
2024-04-25T10:10:06.101Z,84630.53
2024-04-25T10:12:34.349Z,84629.78
2024-04-25T10:15:04.252Z,84622.50
2024-04-25T10:17:39.763Z,84628.28
2024-04-25T10:20:09.275Z,84626.88
2024-04-25T10:22:42.182Z,84616.31
2024-04-25T10:25:16.866Z,84618.94
2024-04-25T10:27:46.650Z,84618.84
2024-04-25T10:30:17.544Z,84627.34
2024-04-25T10:32:45.963Z,84613.69
2024-04-25T10:35:15.276Z,84624.03
2024-04-25T10:37:46.560Z,84607.78
2024-04-25T10:40:16.812Z,84620.06
2024-04-25T10:42:45.518Z,84627.59
2024-04-25T10:45:13.663Z,84618.78
2024-04-25T10:47:42.101Z,84618.19
2024-04-25T10:50:10.640Z,84615.00
2024-04-25T10:52:39.238Z,84607.50
2024-04-25T10:55:07.975Z,84601.41
2024-04-25T10:57:36.488Z,84593.13
2024-04-25T11:00:05.305Z,84586.78
2024-04-25T11:02:37.168Z,84584.66
2024-04-25T11:05:06.629Z,84583.44
2024-04-25T11:07:34.821Z,84591.19
2024-04-25T11:10:03.012Z,84583.34
2024-04-25T11:12:32.182Z,84573.22
2024-04-25T11:15:01.017Z,84582.41
2024-04-25T11:17:37.047Z,84547.72
2024-04-25T11:20:10.226Z,84562.19
2024-04-25T11:22:45.397Z,84561.09
2024-04-25T11:25:21.674Z,84567.94
2024-04-25T11:27:51.635Z,84567.78
2024-04-25T11:30:19.946Z,84563.31
2024-04-25T11:32:48.671Z,84561.31
2024-04-25T11:35:23.551Z,84571.78
2024-04-25T11:37:56.292Z,84564.31
2024-04-25T11:40:38.004Z,84559.25
2024-04-25T11:43:06.623Z,84553.41
2024-04-25T11:45:36.133Z,84549.97
2024-04-25T11:48:08.286Z,84551.97
2024-04-25T11:50:36.911Z,84554.28
2024-04-25T11:53:09.963Z,84549.44
2024-04-25T11:55:40.142Z,84539.38
2024-04-25T11:58:09.328Z,84550.69
2024-04-25T12:00:38.573Z,84532.34
2024-04-25T12:03:07.734Z,84545.19
2024-04-25T12:05:36.547Z,84541.72
2024-04-25T12:08:05.266Z,84533.34
2024-04-25T12:10:33.778Z,84530.19
2024-04-25T12:13:02.889Z,84531.84
2024-04-25T12:15:31.110Z,84525.19
2024-04-25T12:17:59.491Z,84529.25
2024-04-25T12:20:27.926Z,84526.47
2024-04-25T12:22:56.276Z,84529.88
2024-04-25T12:25:24.679Z,84525.25
2024-04-25T12:27:52.920Z,84526.97
2024-04-25T12:30:21.038Z,84533.47
2024-04-25T12:32:49.370Z,84533.72
2024-04-25T12:35:17.731Z,84536.13
2024-04-25T12:37:46.208Z,84533.66
2024-04-25T12:40:14.534Z,84532.88
2024-04-25T12:42:42.842Z,84532.47
2024-04-25T12:45:18.052Z,84519.22
2024-04-25T12:47:46.464Z,84529.16
2024-04-25T12:50:17.476Z,84521.50
2024-04-25T12:52:47.427Z,84529.97
2024-04-25T12:55:15.665Z,84521.69
2024-04-25T12:57:44.075Z,84520.81
2024-04-25T13:00:13.507Z,84522.50
2024-04-25T13:02:41.808Z,84515.78
2024-04-25T13:05:09.929Z,84522.72
2024-04-25T13:07:38.040Z,84516.25
2024-04-25T13:10:06.410Z,84516.09
2024-04-25T13:12:34.800Z,84518.06
2024-04-25T13:15:03.058Z,84513.06
2024-04-25T13:17:31.815Z,84490.19
2024-04-25T13:20:00.253Z,84507.50
2024-04-25T13:22:28.650Z,84512.22
2024-04-25T13:24:57.443Z,84509.31
2024-04-25T13:27:25.998Z,84504.63
2024-04-25T13:29:54.384Z,84508.38
2024-04-25T13:32:22.933Z,84505.50
2024-04-25T13:34:53.438Z,84505.97
2024-04-25T13:37:21.741Z,84509.34
2024-04-25T13:39:54.448Z,84501.34
2024-04-25T13:42:23.210Z,84511.50
2024-04-25T13:44:51.378Z,84504.63
2024-04-25T13:47:19.584Z,84502.47
2024-04-25T13:49:47.825Z,84506.19
2024-04-25T13:52:16.584Z,84509.38
2024-04-25T13:54:45.226Z,84499.25
2024-04-25T13:57:13.816Z,84506.06
2024-04-25T13:59:42.128Z,84503.94
2024-04-25T14:02:11.736Z,84507.31
2024-04-25T14:04:40.446Z,84499.88
2024-04-25T14:07:10.098Z,84512.94
2024-04-25T14:09:42.944Z,84515.00
2024-04-25T14:12:11.189Z,84519.00
2024-04-25T14:14:39.347Z,84517.06
2024-04-25T14:17:07.385Z,84512.06
2024-04-25T14:19:35.565Z,84509.59
2024-04-25T14:22:03.794Z,84519.63
2024-04-25T14:24:35.524Z,84507.84
2024-04-25T14:27:22.793Z,84507.56
2024-04-25T14:29:51.047Z,84511.44
2024-04-25T14:32:19.478Z,84511.44
2024-04-25T14:34:48.785Z,84505.19
2024-04-25T14:37:18.326Z,84483.38
2024-04-25T14:39:46.452Z,84502.88
2024-04-25T14:42:14.676Z,84500.66
2024-04-25T14:44:42.780Z,84507.34
2024-04-25T14:47:10.846Z,84505.66
2024-04-25T14:49:40.169Z,84513.72
2024-04-25T14:52:08.328Z,84506.03
2024-04-25T14:54:36.567Z,84488.78
2024-04-25T14:57:05.046Z,84508.81
2024-04-25T14:59:33.471Z,84502.19
2024-04-25T15:02:01.795Z,84514.75
2024-04-25T15:31:32.369Z,84537.97
2024-04-25T15:34:00.689Z,84545.38
2024-04-25T15:36:29.075Z,84538.41
2024-04-25T15:38:57.519Z,84537.19
2024-04-25T15:41:25.945Z,84545.81
2024-04-25T15:43:54.284Z,84550.81
2024-04-25T15:46:22.642Z,84538.97
2024-04-25T15:48:51.101Z,84540.09
2024-04-25T15:51:19.391Z,84545.25
2024-04-25T15:53:49.377Z,84544.25
2024-04-25T15:56:17.725Z,84554.19
2024-04-25T15:58:46.529Z,84555.13
2024-04-25T16:01:16.222Z,84556.28
2024-04-25T16:03:47.545Z,84560.19
2024-04-25T16:06:20.446Z,84566.44
2024-04-25T16:08:50.109Z,84553.66
2024-04-25T16:11:18.486Z,84567.78
2024-04-25T16:31:34.233Z,84591.69
2024-04-25T16:34:02.750Z,84595.88
2024-04-25T16:36:32.164Z,84585.44
2024-04-25T16:39:00.471Z,84593.75
2024-04-25T16:41:28.834Z,84597.31
2024-04-25T16:43:57.998Z,84602.31
2024-04-25T16:46:26.182Z,84595.31
2024-04-25T16:50:52.902Z,84595.03
2024-04-25T16:53:21.529Z,84602.75
2024-04-25T16:55:50.968Z,84609.41
2024-04-25T16:58:19.365Z,84610.41
2024-04-25T17:00:47.970Z,84611.63
2024-04-25T17:03:44.595Z,84614.00
2024-04-25T17:06:15.265Z,84614.88
2024-04-25T17:08:44.353Z,84622.31
2024-04-25T17:11:28.987Z,84626.59
2024-04-25T17:14:05.274Z,84627.38
2024-04-25T17:16:35.736Z,84630.31
2024-04-25T17:19:06.648Z,84632.59
2024-04-25T17:21:39.104Z,84626.66
2024-04-25T17:24:07.978Z,84639.06
2024-04-25T17:26:37.087Z,84617.81
2024-04-25T17:29:07.218Z,84633.28
2024-04-25T17:32:03.112Z,84638.34
2024-04-25T17:34:31.508Z,84636.47
2024-04-25T17:36:59.776Z,84640.28
2024-04-25T17:39:29.836Z,84638.84
2024-04-25T17:41:58.843Z,84635.47
2024-04-25T17:44:29.814Z,84641.28
2024-04-25T17:47:01.728Z,84629.22
2024-04-25T17:49:31.499Z,84632.91
2024-04-25T17:52:03.153Z,84626.63
2024-04-25T17:54:31.446Z,84624.41
2024-04-25T17:56:59.888Z,84636.00
2024-04-25T17:59:28.290Z,84631.16
2024-04-25T18:01:57.902Z,84633.84
2024-04-25T18:04:26.633Z,84624.94
2024-04-25T18:06:57.003Z,84627.56
2024-04-25T18:09:25.395Z,84625.66
2024-04-25T18:11:53.948Z,84632.50
2024-04-25T18:14:22.358Z,84630.94
2024-04-25T18:16:50.649Z,84633.03
2024-04-25T18:19:18.957Z,84632.56
2024-04-25T18:21:48.978Z,84634.94
2024-04-25T18:24:18.163Z,84642.22
2024-04-25T18:26:47.893Z,84631.63
2024-04-25T18:29:16.246Z,84636.22
2024-04-25T18:31:44.550Z,84642.28
2024-04-25T18:34:12.929Z,84645.72
2024-04-25T18:36:41.161Z,84641.81
2024-04-25T18:39:12.464Z,84645.00
2024-04-25T18:41:41.183Z,84630.06
2024-04-25T18:44:09.375Z,84646.53
2024-04-25T18:46:37.726Z,84646.59
2024-04-25T18:49:10.217Z,84642.31
2024-04-25T18:51:39.198Z,84644.31
2024-04-25T18:54:07.554Z,84646.28
2024-04-25T18:56:37.074Z,84642.91
2024-04-25T18:59:05.950Z,84644.34
2024-04-25T19:01:34.195Z,84648.75
2024-04-25T19:04:02.612Z,84644.13
2024-04-25T19:06:30.812Z,84658.16
2024-04-25T19:09:00.541Z,84653.09
2024-04-25T19:11:28.830Z,84650.78
2024-04-25T19:13:58.016Z,84660.97
2024-04-25T19:16:27.082Z,84660.78
2024-04-25T19:18:55.471Z,84657.44
2024-04-25T19:21:23.675Z,84650.91
2024-04-25T19:23:52.778Z,84659.69
2024-04-25T19:26:20.986Z,84653.88
2024-04-25T19:28:49.145Z,84664.56
2024-04-25T19:31:17.313Z,84661.91
2024-04-25T19:33:47.813Z,84654.16
2024-04-25T19:36:16.880Z,84651.72
2024-04-25T19:38:45.457Z,84651.50
2024-04-25T19:41:13.840Z,84667.66
2024-04-25T19:43:41.915Z,84664.75
2024-04-25T19:46:13.860Z,84667.41
2024-04-25T19:48:44.222Z,84661.41
2024-04-25T19:51:12.565Z,84667.19
2024-04-25T19:53:43.856Z,84663.03
2024-04-25T19:56:14.750Z,84670.34
2024-04-25T19:58:45.693Z,84660.38
2024-04-25T20:01:17.432Z,84666.94
2024-04-25T20:03:46.640Z,84669.81
2024-04-25T20:06:17.268Z,84669.09
2024-04-25T20:08:45.453Z,84660.63
2024-04-25T20:11:13.704Z,84652.69
2024-04-25T20:13:42.577Z,84665.47
2024-04-25T20:16:17.506Z,84656.06
2024-04-25T20:19:04.692Z,84675.22
2024-04-25T20:21:34.158Z,84661.91
2024-04-25T20:24:05.245Z,84662.41
2024-04-25T20:26:34.111Z,84662.16
2024-04-25T20:29:02.330Z,84668.03
2024-04-25T20:31:30.379Z,84634.25
2024-04-25T20:34:01.784Z,84665.44
2024-04-25T20:36:29.906Z,84666.19
2024-04-25T20:38:58.004Z,84675.88
2024-04-25T20:41:27.851Z,84672.50
2024-04-25T20:43:56.133Z,84671.50
2024-04-25T20:46:25.059Z,84668.41
2024-04-25T20:48:56.574Z,84679.28
2024-04-25T20:51:26.708Z,84678.56
2024-04-25T20:53:54.939Z,84683.41
2024-04-25T20:56:24.110Z,84665.53
2024-04-25T20:58:52.601Z,84664.56
2024-04-25T21:01:20.973Z,84669.66
2024-04-25T21:03:49.227Z,84672.31
2024-04-25T21:06:17.305Z,84662.38
2024-04-25T21:08:45.231Z,84678.84
2024-04-25T21:11:13.565Z,84669.16
2024-04-25T21:13:41.812Z,84668.94
2024-04-25T21:16:12.858Z,84671.81
2024-04-25T21:18:41.043Z,84661.44
2024-04-25T21:21:09.587Z,84672.31
2024-04-25T21:23:37.777Z,84667.47
2024-04-25T21:26:07.099Z,84670.16
2024-04-25T21:28:35.242Z,84661.19
2024-04-25T21:31:03.452Z,84669.41
2024-04-25T21:33:31.678Z,84662.38
2024-04-25T21:35:59.975Z,84664.09
2024-04-25T21:38:28.203Z,84623.97
2024-04-25T21:40:57.408Z,84646.44
2024-04-25T21:43:27.101Z,84654.91
2024-04-25T21:45:55.257Z,84635.34
2024-04-25T21:48:24.187Z,84654.91
2024-04-25T21:50:53.991Z,84641.59
2024-04-25T21:53:23.915Z,84648.38
2024-04-25T21:55:52.193Z,84646.69
2024-04-25T21:58:20.511Z,84649.56
2024-04-25T22:00:48.715Z,84648.63
2024-04-25T22:03:16.995Z,84657.56
2024-04-25T22:05:45.083Z,84659.50
2024-04-25T22:08:13.352Z,84657.09
2024-04-25T22:10:41.481Z,84641.13
2024-04-25T22:13:09.954Z,84656.09
2024-04-25T22:15:38.497Z,84640.66
2024-04-25T22:18:08.257Z,84641.38
2024-04-25T22:20:36.519Z,84635.81
2024-04-25T22:23:05.180Z,84637.00
2024-04-25T22:25:33.542Z,84644.75
2024-04-25T22:28:01.832Z,84637.50
2024-04-25T22:30:30.282Z,84637.28
2024-04-25T22:32:58.668Z,84639.44
2024-04-25T22:35:26.982Z,84638.72
2024-04-25T22:37:55.381Z,84637.50
2024-04-25T22:40:23.574Z,84648.88
2024-04-25T22:42:51.561Z,84601.50
2024-04-25T22:45:24.790Z,84641.59
2024-04-25T22:47:56.953Z,84640.91
2024-04-25T22:50:25.228Z,84638.72
2024-04-25T22:52:53.432Z,84633.41
2024-04-25T22:55:21.643Z,84634.38
2024-04-25T22:57:49.857Z,84627.34
2024-04-25T23:00:18.309Z,84610.66
2024-04-25T23:02:47.193Z,84630.00
2024-04-25T23:05:15.793Z,84628.81
2024-04-25T23:07:46.704Z,84634.13
2024-04-25T23:10:15.106Z,84636.03
2024-04-25T23:12:43.283Z,84628.81
2024-04-25T23:15:11.379Z,84633.16
2024-04-25T23:17:39.368Z,84637.00
2024-04-25T23:20:07.983Z,84631.88
2024-04-25T23:22:36.339Z,84632.84
2024-04-25T23:25:04.587Z,84635.72
2024-04-25T23:27:34.385Z,84638.81
2024-04-25T23:30:02.626Z,84642.94
2024-04-25T23:32:31.529Z,84636.44
2024-04-25T23:34:59.765Z,84638.59
2024-04-25T23:37:27.468Z,84636.91
2024-04-25T23:39:55.793Z,84619.94
2024-04-25T23:42:23.942Z,84633.00
2024-04-25T23:44:52.449Z,84636.63
2024-04-25T23:47:21.648Z,84633.97
2024-04-25T23:49:50.032Z,84629.38
2024-04-25T23:52:18.988Z,84638.31
2024-04-25T23:54:47.922Z,84641.44
2024-04-25T23:57:15.965Z,84645.03
2024-04-25T23:59:44.103Z,84645.78
